NOZ109B EDDB-ENGM
Flight info
| Callsign | NOZ109B |
|---|---|
| Flight time | 1h 26m |
| Altitude | 36000 |
| Route | GERGA4B GERGA M725 RENKI Y89 USEDU DCT SALLO DCT ATRIB DCT ELBUX DCT SABAK DCT LUNIP |
| Aircraft | B738/M-SADE3GHIJ1LRWXY/LB1 |
Departure
| Time | 2026-04-30 19:35 |
|---|---|
| Airport | Berlin Brandenburg Airport (EDDB) |
Arrival
| Time | 2026-04-30 21:02 |
|---|---|
| Airport | Oslo-Gardermoen International Airport (ENGM) |
| Time | Latitude | Longitude | Altitude | Speed | Heading |
|---|---|---|---|---|---|
| 2026-04-30 19:08 | 52.36802 | 13.50800 | 127 ft | 0 kts | 159° |
| 2026-04-30 19:26 | 52.36805 | 13.50799 | 154 ft | 3 kts | 159° |
| 2026-04-30 19:27 | 52.36850 | 13.50770 | 154 ft | 4 kts | 161° |
| 2026-04-30 19:27 | 52.36885 | 13.50801 | 154 ft | 4 kts | 249° |
| 2026-04-30 19:28 | 52.36891 | 13.50823 | 154 ft | 0 kts | 249° |
| 2026-04-30 19:30 | 52.36883 | 13.50792 | 154 ft | 6 kts | 249° |
| 2026-04-30 19:31 | 52.36823 | 13.50539 | 154 ft | 14 kts | 249° |
| 2026-04-30 19:31 | 52.36789 | 13.50390 | 154 ft | 14 kts | 249° |
| 2026-04-30 19:31 | 52.36814 | 13.50125 | 154 ft | 13 kts | 282° |
| 2026-04-30 19:32 | 52.36790 | 13.49990 | 154 ft | 12 kts | 248° |
| 2026-04-30 19:32 | 52.36758 | 13.49857 | 154 ft | 14 kts | 249° |
| 2026-04-30 19:32 | 52.36717 | 13.49683 | 153 ft | 17 kts | 249° |
| 2026-04-30 19:32 | 52.36690 | 13.49546 | 153 ft | 10 kts | 276° |
| 2026-04-30 19:33 | 52.36736 | 13.49477 | 153 ft | 9 kts | 335° |
| 2026-04-30 19:33 | 52.36791 | 13.49440 | 153 ft | 8 kts | 339° |
| 2026-04-30 19:33 | 52.36847 | 13.49446 | 153 ft | 8 kts | 32° |
| 2026-04-30 19:33 | 52.36894 | 13.49506 | 153 ft | 10 kts | 38° |
| 2026-04-30 19:34 | 52.36960 | 13.49591 | 154 ft | 14 kts | 38° |
| 2026-04-30 19:34 | 52.37042 | 13.49701 | 154 ft | 18 kts | 44° |
| 2026-04-30 19:34 | 52.37347 | 13.50936 | 154 ft | 120 kts | 69° |
| 2026-04-30 19:35 | 52.37715 | 13.52474 | 241 ft | 162 kts | 69° |
| 2026-04-30 19:35 | 52.38102 | 13.54203 | 950 ft | 161 kts | 68° |
| 2026-04-30 19:35 | 52.38491 | 13.55929 | 1679 ft | 161 kts | 66° |
| 2026-04-30 19:35 | 52.38900 | 13.57650 | 2408 ft | 163 kts | 66° |
| 2026-04-30 19:36 | 52.39318 | 13.59390 | 3146 ft | 165 kts | 65° |
| 2026-04-30 19:36 | 52.39754 | 13.61206 | 3755 ft | 184 kts | 66° |
| 2026-04-30 19:36 | 52.40834 | 13.65725 | 4254 ft | 240 kts | 66° |
| 2026-04-30 19:37 | 52.41466 | 13.68392 | 4721 ft | 258 kts | 67° |
| 2026-04-30 19:37 | 52.42115 | 13.71148 | 5640 ft | 260 kts | 67° |
| 2026-04-30 19:37 | 52.42793 | 13.73643 | 6607 ft | 257 kts | 54° |
| 2026-04-30 19:37 | 52.43355 | 13.74755 | 7078 ft | 256 kts | 45° |
| 2026-04-30 19:38 | 52.43977 | 13.75750 | 7538 ft | 256 kts | 44° |
| 2026-04-30 19:38 | 52.45260 | 13.77779 | 8466 ft | 256 kts | 44° |
| 2026-04-30 19:38 | 52.46532 | 13.79822 | 9445 ft | 256 kts | 44° |
| 2026-04-30 19:38 | 52.47795 | 13.81883 | 10371 ft | 257 kts | 45° |
| 2026-04-30 19:39 | 52.49075 | 13.83996 | 10948 ft | 270 kts | 45° |
| 2026-04-30 19:39 | 52.50461 | 13.86301 | 11128 ft | 296 kts | 45° |
| 2026-04-30 19:39 | 52.51950 | 13.88794 | 11492 ft | 313 kts | 45° |
| 2026-04-30 19:39 | 52.53485 | 13.91374 | 12215 ft | 318 kts | 46° |
| 2026-04-30 19:40 | 52.55032 | 13.93982 | 13055 ft | 319 kts | 46° |
| 2026-04-30 19:40 | 52.56587 | 13.96607 | 13894 ft | 321 kts | 46° |
| 2026-04-30 19:40 | 52.58217 | 13.99138 | 14608 ft | 326 kts | 36° |
| 2026-04-30 19:40 | 52.60303 | 14.00640 | 15316 ft | 334 kts | 16° |
| 2026-04-30 19:41 | 52.62629 | 14.01050 | 16072 ft | 341 kts | 3° |
| 2026-04-30 19:41 | 52.64203 | 14.00881 | 16557 ft | 344 kts | 360° |
| 2026-04-30 19:41 | 52.66605 | 14.00471 | 17254 ft | 348 kts | 359° |
| 2026-04-30 19:41 | 52.69021 | 14.00013 | 17950 ft | 351 kts | 358° |
| 2026-04-30 19:42 | 52.71459 | 13.99558 | 18652 ft | 354 kts | 359° |
| 2026-04-30 19:42 | 52.73916 | 13.99117 | 19258 ft | 356 kts | 359° |
| 2026-04-30 19:42 | 52.76392 | 13.98689 | 19836 ft | 359 kts | 359° |
| 2026-04-30 19:42 | 52.78887 | 13.98267 | 20408 ft | 362 kts | 359° |
| 2026-04-30 19:43 | 52.81409 | 13.97846 | 20980 ft | 365 kts | 359° |
| 2026-04-30 19:43 | 52.83948 | 13.97424 | 21550 ft | 368 kts | 359° |
| 2026-04-30 19:43 | 52.86508 | 13.96999 | 22094 ft | 371 kts | 359° |
| 2026-04-30 19:44 | 52.91694 | 13.96258 | 23161 ft | 375 kts | 4° |
| 2026-04-30 19:44 | 52.94289 | 13.96568 | 23694 ft | 375 kts | 9° |
| 2026-04-30 19:44 | 52.96888 | 13.97064 | 24178 ft | 377 kts | 9° |
| 2026-04-30 19:44 | 52.99505 | 13.97577 | 24605 ft | 380 kts | 9° |
| 2026-04-30 19:45 | 53.02140 | 13.98090 | 25041 ft | 382 kts | 9° |
| 2026-04-30 19:45 | 53.04789 | 13.98598 | 25469 ft | 384 kts | 9° |
| 2026-04-30 19:45 | 53.07452 | 13.99101 | 25887 ft | 387 kts | 9° |
| 2026-04-30 19:45 | 53.10134 | 13.99603 | 26293 ft | 389 kts | 9° |
| 2026-04-30 19:46 | 53.12834 | 14.00106 | 26695 ft | 391 kts | 9° |
| 2026-04-30 19:46 | 53.15546 | 14.00610 | 27078 ft | 394 kts | 9° |
| 2026-04-30 19:46 | 53.18277 | 14.01117 | 27459 ft | 396 kts | 9° |
| 2026-04-30 19:46 | 53.21027 | 14.01628 | 27831 ft | 398 kts | 8° |
| 2026-04-30 19:47 | 53.23787 | 14.02141 | 28199 ft | 401 kts | 8° |
| 2026-04-30 19:47 | 53.25626 | 14.02484 | 28436 ft | 402 kts | 8° |
| 2026-04-30 19:47 | 53.29360 | 14.03180 | 28909 ft | 405 kts | 8° |
| 2026-04-30 19:47 | 53.32165 | 14.03704 | 29251 ft | 407 kts | 8° |
| 2026-04-30 19:48 | 53.34989 | 14.04232 | 29583 ft | 409 kts | 8° |
| 2026-04-30 19:48 | 53.37820 | 14.04763 | 29970 ft | 410 kts | 8° |
| 2026-04-30 19:48 | 53.40650 | 14.05293 | 30471 ft | 408 kts | 8° |
| 2026-04-30 19:48 | 53.43464 | 14.05821 | 30887 ft | 406 kts | 8° |
| 2026-04-30 19:49 | 53.46274 | 14.06349 | 31203 ft | 407 kts | 8° |
| 2026-04-30 19:49 | 53.51883 | 14.07409 | 31692 ft | 411 kts | 8° |
| 2026-04-30 19:49 | 53.54768 | 14.07953 | 32033 ft | 411 kts | 8° |
| 2026-04-30 19:50 | 53.57561 | 14.08481 | 32455 ft | 408 kts | 8° |
| 2026-04-30 19:50 | 53.60383 | 14.08943 | 32836 ft | 408 kts | 4° |
| 2026-04-30 19:50 | 53.63228 | 14.08816 | 33140 ft | 410 kts | 356° |
| 2026-04-30 19:50 | 53.66047 | 14.07969 | 33453 ft | 413 kts | 350° |
| 2026-04-30 19:51 | 53.68840 | 14.06877 | 33795 ft | 412 kts | 349° |
| 2026-04-30 19:51 | 53.71635 | 14.05771 | 34102 ft | 412 kts | 349° |
| 2026-04-30 19:51 | 53.74428 | 14.04674 | 34427 ft | 412 kts | 349° |
| 2026-04-30 19:51 | 53.77216 | 14.03593 | 34725 ft | 411 kts | 349° |
| 2026-04-30 19:52 | 53.79995 | 14.02525 | 35037 ft | 409 kts | 349° |
| 2026-04-30 19:52 | 53.82767 | 14.01466 | 35329 ft | 408 kts | 349° |
| 2026-04-30 19:52 | 53.85535 | 14.00409 | 35612 ft | 407 kts | 349° |
| 2026-04-30 19:52 | 53.88297 | 13.99354 | 35897 ft | 407 kts | 349° |
| 2026-04-30 19:53 | 53.91052 | 13.98300 | 36164 ft | 406 kts | 349° |
| 2026-04-30 19:53 | 53.93801 | 13.97246 | 36419 ft | 405 kts | 349° |
| 2026-04-30 19:53 | 53.99270 | 13.94548 | 36425 ft | 411 kts | 343° |
| 2026-04-30 19:54 | 54.04629 | 13.91305 | 36422 ft | 407 kts | 343° |
| 2026-04-30 19:54 | 54.09947 | 13.88072 | 36425 ft | 405 kts | 343° |
| 2026-04-30 19:55 | 54.15249 | 13.84894 | 36414 ft | 403 kts | 343° |
| 2026-04-30 19:55 | 54.20550 | 13.81737 | 36420 ft | 404 kts | 343° |
| 2026-04-30 19:56 | 54.25865 | 13.78571 | 36423 ft | 406 kts | 342° |
| 2026-04-30 19:56 | 54.31215 | 13.75374 | 36422 ft | 409 kts | 342° |
| 2026-04-30 19:57 | 54.36603 | 13.72145 | 36428 ft | 412 kts | 342° |
| 2026-04-30 19:57 | 54.42029 | 13.68884 | 36417 ft | 415 kts | 342° |
| 2026-04-30 19:58 | 54.47487 | 13.65593 | 36415 ft | 416 kts | 342° |
| 2026-04-30 19:58 | 54.52960 | 13.62285 | 36418 ft | 417 kts | 342° |
| 2026-04-30 19:59 | 54.58422 | 13.58973 | 36418 ft | 416 kts | 342° |
| 2026-04-30 20:00 | 54.66598 | 13.53999 | 36409 ft | 414 kts | 342° |
| 2026-04-30 20:00 | 54.72023 | 13.50686 | 36416 ft | 413 kts | 342° |
| 2026-04-30 20:01 | 54.80139 | 13.45713 | 36421 ft | 412 kts | 342° |
| 2026-04-30 20:01 | 54.85506 | 13.42413 | 36412 ft | 412 kts | 342° |
| 2026-04-30 20:02 | 54.93610 | 13.37452 | 36414 ft | 411 kts | 343° |
| 2026-04-30 20:03 | 55.01790 | 13.32908 | 36416 ft | 411 kts | 343° |
| 2026-04-30 20:03 | 55.07248 | 13.29893 | 36409 ft | 412 kts | 343° |
| 2026-04-30 20:04 | 55.12708 | 13.26843 | 36401 ft | 412 kts | 343° |
| 2026-04-30 20:05 | 55.20906 | 13.22225 | 36419 ft | 414 kts | 343° |
| 2026-04-30 20:05 | 55.29145 | 13.17559 | 36405 ft | 416 kts | 343° |
| 2026-04-30 20:06 | 55.34654 | 13.14429 | 36413 ft | 417 kts | 343° |
| 2026-04-30 20:06 | 55.40183 | 13.11278 | 36417 ft | 418 kts | 343° |
| 2026-04-30 20:07 | 55.45684 | 13.08133 | 36412 ft | 419 kts | 343° |
| 2026-04-30 20:08 | 55.53996 | 13.03364 | 36413 ft | 419 kts | 343° |
| 2026-04-30 20:08 | 55.59492 | 13.00200 | 36425 ft | 418 kts | 342° |
| 2026-04-30 20:09 | 55.65027 | 12.97003 | 36428 ft | 418 kts | 342° |
| 2026-04-30 20:09 | 55.73311 | 12.92201 | 36422 ft | 417 kts | 342° |
| 2026-04-30 20:10 | 55.81579 | 12.87387 | 36420 ft | 417 kts | 342° |
| 2026-04-30 20:11 | 55.89844 | 12.82553 | 36431 ft | 417 kts | 342° |
| 2026-04-30 20:11 | 55.95358 | 12.79315 | 36423 ft | 417 kts | 342° |
| 2026-04-30 20:12 | 56.03631 | 12.74440 | 36422 ft | 417 kts | 342° |
| 2026-04-30 20:13 | 56.09149 | 12.71176 | 36423 ft | 417 kts | 342° |
| 2026-04-30 20:13 | 56.14662 | 12.67905 | 36416 ft | 417 kts | 342° |
| 2026-04-30 20:14 | 56.20173 | 12.64625 | 36404 ft | 417 kts | 342° |
| 2026-04-30 20:14 | 56.25683 | 12.61336 | 36422 ft | 417 kts | 342° |
| 2026-04-30 20:15 | 56.31188 | 12.58039 | 36429 ft | 417 kts | 342° |
| 2026-04-30 20:15 | 56.36690 | 12.54735 | 36429 ft | 417 kts | 342° |
| 2026-04-30 20:16 | 56.41861 | 12.51622 | 36423 ft | 417 kts | 342° |
| 2026-04-30 20:16 | 56.47449 | 12.48796 | 36430 ft | 416 kts | 346° |
| 2026-04-30 20:17 | 56.53072 | 12.46290 | 36427 ft | 416 kts | 347° |
| 2026-04-30 20:17 | 56.58693 | 12.43763 | 36417 ft | 416 kts | 346° |
| 2026-04-30 20:18 | 56.64310 | 12.41182 | 36421 ft | 416 kts | 346° |
| 2026-04-30 20:18 | 56.69922 | 12.38574 | 36420 ft | 416 kts | 346° |
| 2026-04-30 20:19 | 56.75497 | 12.35970 | 36428 ft | 416 kts | 346° |
| 2026-04-30 20:19 | 56.81102 | 12.33343 | 36413 ft | 416 kts | 346° |
| 2026-04-30 20:20 | 56.86713 | 12.30707 | 36428 ft | 416 kts | 346° |
| 2026-04-30 20:20 | 56.92319 | 12.28065 | 36408 ft | 416 kts | 346° |
| 2026-04-30 20:21 | 56.97927 | 12.25414 | 36419 ft | 416 kts | 346° |
| 2026-04-30 20:21 | 57.03530 | 12.22757 | 36409 ft | 416 kts | 346° |
| 2026-04-30 20:22 | 57.09138 | 12.20089 | 36423 ft | 416 kts | 346° |
| 2026-04-30 20:22 | 57.14740 | 12.17415 | 36406 ft | 416 kts | 346° |
| 2026-04-30 20:23 | 57.20340 | 12.14735 | 36413 ft | 416 kts | 346° |
| 2026-04-30 20:23 | 57.25936 | 12.12048 | 36415 ft | 416 kts | 346° |
| 2026-04-30 20:24 | 57.31532 | 12.09352 | 36418 ft | 415 kts | 346° |
| 2026-04-30 20:24 | 57.37123 | 12.06650 | 36418 ft | 415 kts | 346° |
| 2026-04-30 20:25 | 57.45510 | 12.02581 | 36401 ft | 415 kts | 346° |
| 2026-04-30 20:26 | 57.53888 | 11.98498 | 36407 ft | 415 kts | 346° |
| 2026-04-30 20:26 | 57.62230 | 11.94205 | 36402 ft | 415 kts | 344° |
| 2026-04-30 20:27 | 57.73290 | 11.88270 | 36403 ft | 415 kts | 344° |
| 2026-04-30 20:28 | 57.84386 | 11.82327 | 36404 ft | 415 kts | 344° |
| 2026-04-30 20:30 | 57.97352 | 11.75338 | 36399 ft | 415 kts | 344° |
| 2026-04-30 20:31 | 58.14222 | 11.69206 | 36384 ft | 414 kts | 356° |
| 2026-04-30 20:32 | 58.28584 | 11.67513 | 36379 ft | 414 kts | 356° |
| 2026-04-30 20:33 | 58.37200 | 11.66481 | 36098 ft | 413 kts | 356° |
| 2026-04-30 20:33 | 58.40040 | 11.66139 | 35807 ft | 406 kts | 356° |
| 2026-04-30 20:34 | 58.45622 | 11.65466 | 35034 ft | 398 kts | 356° |
| 2026-04-30 20:34 | 58.51100 | 11.64802 | 34253 ft | 391 kts | 355° |
| 2026-04-30 20:35 | 58.53803 | 11.64473 | 33826 ft | 388 kts | 355° |
| 2026-04-30 20:35 | 58.56483 | 11.64148 | 33437 ft | 384 kts | 355° |
| 2026-04-30 20:35 | 58.61758 | 11.63505 | 32680 ft | 376 kts | 355° |
| 2026-04-30 20:36 | 58.64354 | 11.63188 | 32305 ft | 373 kts | 355° |
| 2026-04-30 20:36 | 58.66931 | 11.62873 | 31948 ft | 369 kts | 355° |
| 2026-04-30 20:36 | 58.72020 | 11.62248 | 31217 ft | 363 kts | 355° |
| 2026-04-30 20:37 | 58.74530 | 11.61940 | 30857 ft | 360 kts | 355° |
| 2026-04-30 20:37 | 58.77025 | 11.61633 | 30511 ft | 358 kts | 355° |
| 2026-04-30 20:37 | 58.79497 | 11.61328 | 30112 ft | 355 kts | 355° |
| 2026-04-30 20:37 | 58.81950 | 11.61026 | 29746 ft | 351 kts | 355° |
| 2026-04-30 20:38 | 58.84372 | 11.60727 | 29379 ft | 347 kts | 355° |
| 2026-04-30 20:38 | 58.86769 | 11.60430 | 29005 ft | 344 kts | 355° |
| 2026-04-30 20:38 | 58.89145 | 11.60136 | 28655 ft | 340 kts | 355° |
| 2026-04-30 20:39 | 58.93825 | 11.59555 | 27935 ft | 334 kts | 355° |
| 2026-04-30 20:39 | 58.96135 | 11.59267 | 27583 ft | 331 kts | 355° |
| 2026-04-30 20:39 | 58.98426 | 11.58982 | 27227 ft | 329 kts | 355° |
| 2026-04-30 20:40 | 59.02960 | 11.58415 | 26541 ft | 324 kts | 355° |
| 2026-04-30 20:40 | 59.05210 | 11.58134 | 26205 ft | 323 kts | 355° |
| 2026-04-30 20:40 | 59.07454 | 11.57852 | 25871 ft | 323 kts | 355° |
| 2026-04-30 20:41 | 59.11975 | 11.57283 | 25206 ft | 334 kts | 354° |
| 2026-04-30 20:41 | 59.14337 | 11.56982 | 24837 ft | 344 kts | 354° |
| 2026-04-30 20:41 | 59.16724 | 11.56680 | 24457 ft | 343 kts | 354° |
| 2026-04-30 20:41 | 59.19103 | 11.56381 | 24095 ft | 342 kts | 354° |
| 2026-04-30 20:42 | 59.21438 | 11.56088 | 23701 ft | 340 kts | 354° |
| 2026-04-30 20:42 | 59.23791 | 11.55792 | 23299 ft | 338 kts | 354° |
| 2026-04-30 20:42 | 59.28451 | 11.55204 | 22560 ft | 333 kts | 354° |
| 2026-04-30 20:43 | 59.30753 | 11.54912 | 22204 ft | 330 kts | 354° |
| 2026-04-30 20:43 | 59.33039 | 11.54622 | 21854 ft | 328 kts | 354° |
| 2026-04-30 20:43 | 59.35308 | 11.54333 | 21513 ft | 326 kts | 354° |
| 2026-04-30 20:44 | 59.39799 | 11.53761 | 20841 ft | 321 kts | 353° |
| 2026-04-30 20:44 | 59.42026 | 11.53476 | 20507 ft | 320 kts | 353° |
| 2026-04-30 20:44 | 59.46444 | 11.52910 | 19839 ft | 317 kts | 353° |
| 2026-04-30 20:45 | 59.50831 | 11.52345 | 19176 ft | 315 kts | 353° |
| 2026-04-30 20:45 | 59.53012 | 11.52064 | 18847 ft | 314 kts | 353° |
| 2026-04-30 20:45 | 59.55193 | 11.51783 | 18491 ft | 313 kts | 353° |
| 2026-04-30 20:46 | 59.61712 | 11.50941 | 17428 ft | 309 kts | 353° |
| 2026-04-30 20:46 | 59.63822 | 11.50669 | 17104 ft | 307 kts | 353° |
| 2026-04-30 20:47 | 59.68069 | 11.50118 | 16459 ft | 305 kts | 352° |
| 2026-04-30 20:47 | 59.70182 | 11.49844 | 16126 ft | 304 kts | 352° |
| 2026-04-30 20:48 | 59.74387 | 11.49295 | 15484 ft | 302 kts | 352° |
| 2026-04-30 20:48 | 59.76484 | 11.49021 | 15157 ft | 302 kts | 352° |
| 2026-04-30 20:48 | 59.78590 | 11.48744 | 14663 ft | 307 kts | 352° |
| 2026-04-30 20:48 | 59.80731 | 11.48461 | 14265 ft | 309 kts | 352° |
| 2026-04-30 20:49 | 59.82881 | 11.48179 | 13879 ft | 309 kts | 352° |
| 2026-04-30 20:49 | 59.85022 | 11.47899 | 13529 ft | 308 kts | 352° |
| 2026-04-30 20:49 | 59.87153 | 11.47620 | 13169 ft | 306 kts | 352° |
| 2026-04-30 20:50 | 59.91375 | 11.47067 | 12517 ft | 302 kts | 352° |
| 2026-04-30 20:50 | 59.93466 | 11.46792 | 12192 ft | 301 kts | 352° |
| 2026-04-30 20:50 | 59.95553 | 11.46517 | 11838 ft | 300 kts | 352° |
| 2026-04-30 20:50 | 59.97662 | 11.46236 | 11326 ft | 306 kts | 352° |
| 2026-04-30 20:51 | 59.99786 | 11.45953 | 10930 ft | 306 kts | 352° |
| 2026-04-30 20:51 | 60.04025 | 11.45391 | 10266 ft | 304 kts | 352° |
| 2026-04-30 20:51 | 60.06102 | 11.45119 | 10113 ft | 296 kts | 352° |
| 2026-04-30 20:52 | 60.08133 | 11.44851 | 9851 ft | 292 kts | 352° |
| 2026-04-30 20:52 | 60.10158 | 11.44578 | 9502 ft | 291 kts | 351° |
| 2026-04-30 20:52 | 60.14106 | 11.43365 | 8869 ft | 285 kts | 346° |
| 2026-04-30 20:53 | 60.16050 | 11.42669 | 8565 ft | 283 kts | 346° |
| 2026-04-30 20:53 | 60.17981 | 11.41972 | 8263 ft | 281 kts | 346° |
| 2026-04-30 20:53 | 60.19902 | 11.41273 | 7962 ft | 279 kts | 346° |
| 2026-04-30 20:54 | 60.23716 | 11.39887 | 7322 ft | 278 kts | 346° |
| 2026-04-30 20:54 | 60.25616 | 11.39192 | 6902 ft | 277 kts | 346° |
| 2026-04-30 20:54 | 60.27504 | 11.38496 | 6475 ft | 274 kts | 346° |
| 2026-04-30 20:55 | 60.31212 | 11.37116 | 5558 ft | 267 kts | 346° |
| 2026-04-30 20:55 | 60.33017 | 11.36433 | 5224 ft | 259 kts | 346° |
| 2026-04-30 20:55 | 60.34732 | 11.35785 | 5145 ft | 242 kts | 346° |
| 2026-04-30 20:56 | 60.37806 | 11.34648 | 4856 ft | 211 kts | 345° |
| 2026-04-30 20:56 | 60.39113 | 11.33490 | 4487 ft | 204 kts | 314° |
| 2026-04-30 20:56 | 60.39576 | 11.28409 | 4049 ft | 196 kts | 242° |
| 2026-04-30 20:57 | 60.38683 | 11.26373 | 4000 ft | 191 kts | 226° |
| 2026-04-30 20:57 | 60.37715 | 11.24600 | 3846 ft | 185 kts | 225° |
| 2026-04-30 20:57 | 60.36779 | 11.22905 | 3667 ft | 177 kts | 225° |
| 2026-04-30 20:58 | 60.34981 | 11.19693 | 3508 ft | 173 kts | 224° |
| 2026-04-30 20:58 | 60.34074 | 11.18067 | 3333 ft | 176 kts | 225° |
| 2026-04-30 20:58 | 60.33157 | 11.16414 | 3017 ft | 178 kts | 223° |
| 2026-04-30 20:58 | 60.32086 | 11.15266 | 2835 ft | 174 kts | 199° |
| 2026-04-30 20:59 | 60.29817 | 11.13915 | 2393 ft | 167 kts | 199° |
| 2026-04-30 20:59 | 60.28717 | 11.13275 | 2168 ft | 160 kts | 198° |
| 2026-04-30 21:00 | 60.26671 | 11.12094 | 1748 ft | 151 kts | 199° |
| 2026-04-30 21:00 | 60.24698 | 11.10953 | 1343 ft | 146 kts | 197° |
| 2026-04-30 21:01 | 60.22778 | 11.09845 | 965 ft | 142 kts | 194° |
| 2026-04-30 21:01 | 60.21829 | 11.09292 | 786 ft | 142 kts | 195° |
| 2026-04-30 21:01 | 60.20270 | 11.08393 | 682 ft | 56 kts | 196° |
| 2026-04-30 21:02 | 60.20055 | 11.08294 | 680 ft | 20 kts | 183° |
| 2026-04-30 21:02 | 60.19960 | 11.08307 | 682 ft | 7 kts | 167° |
| 2026-04-30 21:02 | 60.19919 | 11.08346 | 682 ft | 6 kts | 140° |
| 2026-04-30 21:02 | 60.19895 | 11.08422 | 680 ft | 7 kts | 111° |
| 2026-04-30 21:03 | 60.19882 | 11.08509 | 676 ft | 7 kts | 105° |
| 2026-04-30 21:03 | 60.19868 | 11.08603 | 678 ft | 7 kts | 106° |
| 2026-04-30 21:03 | 60.19855 | 11.08695 | 681 ft | 7 kts | 106° |
| 2026-04-30 21:03 | 60.19842 | 11.08786 | 683 ft | 7 kts | 106° |
| 2026-04-30 21:04 | 60.19829 | 11.08876 | 682 ft | 7 kts | 106° |
| 2026-04-30 21:04 | 60.19816 | 11.08963 | 687 ft | 6 kts | 106° |
| 2026-04-30 21:04 | 60.19792 | 11.09133 | 685 ft | 6 kts | 106° |
| 2026-04-30 21:05 | 60.19780 | 11.09216 | 686 ft | 6 kts | 105° |
| 2026-04-30 21:05 | 60.19769 | 11.09297 | 690 ft | 6 kts | 106° |
| 2026-04-30 21:05 | 60.19758 | 11.09376 | 690 ft | 5 kts | 106° |
| 2026-04-30 21:05 | 60.19748 | 11.09441 | 683 ft | 4 kts | 106° |
| 2026-04-30 21:06 | 60.19736 | 11.09523 | 687 ft | 10 kts | 106° |
| 2026-04-30 21:06 | 60.19714 | 11.09677 | 689 ft | 12 kts | 106° |
| 2026-04-30 21:06 | 60.19648 | 11.09726 | 690 ft | 12 kts | 196° |
| 2026-04-30 21:06 | 60.19579 | 11.09789 | 689 ft | 10 kts | 139° |
| 2026-04-30 21:07 | 60.19558 | 11.09863 | 687 ft | 2 kts | 103° |
| 2026-04-30 21:07 | 60.19555 | 11.09886 | 689 ft | 1 kts | 105° |
| 2026-04-30 21:07 | 60.19554 | 11.09895 | 690 ft | 0 kts | 106° |
| 2026-04-30 21:07 | 60.19554 | 11.09897 | 690 ft | 0 kts | 106° |